PA83 weather

Skyview Heliport
Souderton, Pennsylvania, United States

Public forecast

Using degrees Fahrenheit for public forecast. Weather courtesy of forecast.io.

METAR (pilot weather report)

Closest report is Pennridge Airport, 4.5 nm (8.3 km) N. Retrieved 2019/09/17 05:35 UTC (0 seconds ago):

KCKZ 170535Z AUTO 03005KT 10SM OVC050 18/17 A3009 RMK AO2

TAF (pilot weather forecast)

Forecast is more than 12 hours old.

Closest forecast is Northeast Philadelphia Airport, 19.5 nm (36.0 km) SE. Retrieved 2019/09/16 00:30 UTC (1 day ago):

TAF KPNE 162328Z 1700/1724 05006KT P6SM OVC060 FM170800 04007KT P6SM SCT070 FM172300 08005KT P6SM FEW200